Flight Track Log - Related Links

Times and Time Zones

All times are in EDT time to prevent confusion due to time zone crossing. See the SWA561 flight status page for this flight to view local times or setup timezone preferences in your user account.

Time Position Orientation Groundspeed Altitude Reporting Facility
EDT Latitude Longitude Course Direction KTS MPH feet Rate Location/Type
Fri 07:45:18 PM 37.7333 -122.2667 302° West 175 201 2,100  Level Northern Cal TRACON
Fri 07:46:18 PM 37.7667 -122.3333 302° West 255 293 2,900 2,300 Climbing Northern Cal TRACON
Fri 07:47:18 PM 37.7667 -122.4333 270° West 290 334 6,700 3,850 Climbing Northern Cal TRACON
Fri 07:48:18 PM 37.6833 -122.4667 198° South 310 357 10,600 3,600 Climbing Northern Cal TRACON
Fri 07:49:18 PM 37.5833 -122.5000 195° South 362 417 13,900 2,961 Climbing Northern Cal TRACON
Fri 07:49:35 PM 37.5700 -122.5083 206° Southwest 354 407 14,400 1,595 Climbing Oakland Center
Fri 07:50:37 PM 37.4681 -122.5306 190° South 376 433 16,000 2,244 Climbing Oakland Center
Fri 07:51:38 PM 37.3931 -122.4433 137° Southeast 380 437 19,000 3,220 Climbing Oakland Center
Fri 07:52:40 PM 37.3061 -122.3167 131° Southeast 399 459 22,600 2,976 Climbing Oakland Center
Fri 07:53:41 PM 37.2306 -122.2067 131° Southeast 415 478 25,100 2,361 Climbing Oakland Center
Fri 07:54:42 PM 37.1514 -122.0900 130° Southeast 436 502 27,400 2,146 Climbing Oakland Center
Fri 07:55:44 PM 37.0692 -121.9711 131° Southeast 450 518 29,500 1,854 Climbing Oakland Center
Fri 07:56:45 PM 36.9844 -121.8494 131° Southeast 463 533 31,200 1,869 Climbing Oakland Center
Fri 07:57:46 PM 36.8950 -121.7283 133° Southeast 472 543 33,300 1,902 Climbing Oakland Center
Fri 07:58:48 PM 36.8117 -121.6114 132° Southeast 471 542 35,100 1,951 Climbing Oakland Center
Fri 07:59:49 PM 36.7089 -121.4633 131° Southeast 470 541 37,300 1,918 Climbing Oakland Center
Fri 08:00:50 PM 36.6242 -121.3419 131° Southeast 464 534 39,000 829 Climbing Oakland Center
Fri 08:01:52 PM 36.5400 -121.2222 131° Southeast 459 528 39,000  Level Oakland Center
Fri 08:02:53 PM 36.4553 -121.1025 131° Southeast 461 531 39,000  Level Oakland Center
Fri 08:03:54 PM 36.3722 -120.9828 131° Southeast 457 526 39,000  Level Oakland Center
Fri 08:04:56 PM 36.2881 -120.8664 132° Southeast 453 521 39,000  Level Oakland Center
Fri 08:05:57 PM 36.2050 -120.7497 131° Southeast 449 517 39,000  Level Oakland Center
Fri 08:06:58 PM 36.1211 -120.6336 132° Southeast 451 519 39,000  Level Oakland Center
Fri 08:07:59 PM 36.0386 -120.5156 131° Southeast 451 519 39,000  Level Oakland Center
Fri 08:09:01 PM 35.9550 -120.4008 132° Southeast 446 513 39,000  Level Oakland Center
Fri 08:10:02 PM 35.8539 -120.2622 132° Southeast 448 516 39,000  Level Oakland Center
Fri 08:11:03 PM 35.7708 -120.1489 132° Southeast 444 511 39,000  Level Oakland Center
Fri 08:12:05 PM 35.6869 -120.0339 132° Southeast 445 512 39,000  Level Oakland Center
Fri 08:13:06 PM 35.5914 -119.9308 139° Southeast 456 525 39,000  Level Oakland Center
Fri 08:14:07 PM 35.4892 -119.8425 145° Southeast 446 513 39,000  Level Oakland Center
Fri 08:15:09 PM 35.3872 -119.7553 145° Southeast 445 512 39,000 -69 Level Oakland Center
Fri 08:15:34 PM 35.3478 -119.7197 144° Southeast 445 512 38,900 -2,345 Descending Los Angeles Center
Fri 08:16:36 PM 35.2458 -119.6325 145° Southeast 444 511 35,600 -2,855 Descending Los Angeles Center
Fri 08:17:38 PM 35.1417 -119.5425 145° Southeast 453 521 33,000 -2,323 Descending Los Angeles Center
Fri 08:18:40 PM 35.0392 -119.4558 145° Southeast 449 517 30,800 -2,468 Descending Los Angeles Center
Fri 08:19:42 PM 34.9239 -119.3572 145° Southeast 429 494 27,900 -2,371 Descending Los Angeles Center
Fri 08:20:44 PM 34.8294 -119.2781 145° Southeast 415 478 25,900 -1,887 Descending Los Angeles Center
Fri 08:21:46 PM 34.7378 -119.1997 145° Southeast 404 465 24,000 -1,790 Descending Los Angeles Center
Fri 08:22:48 PM 34.6503 -119.1261 145° Southeast 386 444 22,200 -1,839 Descending Los Angeles Center
Fri 08:23:50 PM 34.5556 -119.0478 146° Southeast 374 430 20,200 -1,839 Descending Los Angeles Center
Fri 08:24:52 PM 34.4731 -118.9786 145° Southeast 362 417 18,400 -1,776 Descending Los Angeles Center
Fri 08:25:55 PM 34.3939 -118.9111 145° Southeast 350 403 16,500 -1,728 Descending Los Angeles Center
Fri 08:26:57 PM 34.3103 -118.8633 155° Southeast 333 383 14,800 -1,694 Descending Los Angeles Center
Fri 08:27:59 PM 34.2222 -118.8314 163° South 332 382 13,000 -1,839 Descending Los Angeles Center
Fri 08:29:01 PM 34.1219 -118.7903 161° South 317 365 11,000 -1,452 Descending Los Angeles Center
Fri 08:30:03 PM 34.0867 -118.6911 113° Southeast 317 365 10,000 -774 Descending Los Angeles Center
Fri 08:31:05 PM 34.0531 -118.5886 112° Southeast 302 348 9,400 -823 Descending Los Angeles Center
Fri 08:32:07 PM 34.0244 -118.5008 111° Southeast 282 325 8,300 -1,258 Descending Los Angeles Center
Fri 08:33:09 PM 34.0136 -118.4214 99° East 275 316 6,800 -1,403 Descending Los Angeles Center
Fri 08:34:11 PM 34.0206 -118.3281 85° East 278 320 5,400 -1,161 Descending Los Angeles Center
Fri 08:35:13 PM 34.0194 -118.2283 91° East 258 297 4,400 -1,016 Descending Los Angeles Center
Fri 08:36:15 PM 33.9672 -118.2403 191° South 214 246 3,300 -968 Descending Los Angeles Center
Fri 08:37:17 PM 33.9628 -118.2964 265° West 184 212 2,400 -1,016 Descending Los Angeles Center
Fri 08:38:19 PM 33.9583 -118.3456 264° West 163 188 1,200 -968 Descending Los Angeles Center
Fri 08:39:21 PM 33.9544 -118.3869 264° West 143 165 400 -774 Descending Los Angeles Center
Fri 08:41:00 PM 33.9333 -118.4000 228° Southwest  Level FlightAware Approximate

Login

Don't have an account? Register now (free) for customized features, flight alerts, and more!